createdAt,value
2022-10-17T00:00:31.993Z,17.96
2022-10-17T00:02:58.609Z,17.60
2022-10-17T00:05:25.367Z,17.54
2022-10-17T00:07:52.722Z,17.65
2022-10-17T00:10:19.980Z,17.30
2022-10-17T00:12:47.434Z,17.39
2022-10-17T00:15:18.001Z,17.97
2022-10-17T00:17:44.888Z,17.44
2022-10-17T00:20:12.356Z,17.47
2022-10-17T00:22:38.919Z,17.70
2022-10-17T00:25:05.967Z,17.75
2022-10-17T00:27:39.171Z,17.94
2022-10-17T00:30:07.690Z,17.96
2022-10-17T00:32:34.313Z,17.85
2022-10-17T00:35:01.238Z,17.62
2022-10-17T00:37:27.915Z,17.41
2022-10-17T00:39:55.008Z,17.50
2022-10-17T00:42:22.180Z,17.42
2022-10-17T00:44:48.769Z,17.45
2022-10-17T00:47:22.586Z,17.50
2022-10-17T00:49:49.258Z,17.30
2022-10-17T00:52:20.535Z,17.07
2022-10-17T00:54:53.071Z,16.71
2022-10-17T00:57:20.045Z,16.77
2022-10-17T00:59:52.895Z,17.01
2022-10-17T01:02:21.769Z,17.15
2022-10-17T01:04:52.206Z,17.09
2022-10-17T01:07:18.872Z,17.26
2022-10-17T01:09:47.496Z,17.51
2022-10-17T01:12:22.081Z,17.44
2022-10-17T01:15:22.813Z,17.46
2022-10-17T01:18:02.085Z,17.34
2022-10-17T01:20:50.082Z,17.43
2022-10-17T01:23:25.066Z,17.05
2022-10-17T01:26:09.839Z,17.27
2022-10-17T01:29:05.358Z,17.39
2022-10-17T01:31:45.800Z,17.26
2022-10-17T01:34:15.526Z,17.09
2022-10-17T01:36:59.311Z,16.87
2022-10-17T01:39:46.989Z,16.85
2022-10-17T01:42:14.988Z,16.43
2022-10-17T01:45:02.568Z,16.89
2022-10-17T01:47:33.925Z,16.68
2022-10-17T01:50:14.091Z,16.81
2022-10-17T01:52:55.711Z,16.59
2022-10-17T01:55:41.531Z,16.38
2022-10-17T01:58:24.721Z,16.28
2022-10-17T02:00:53.068Z,16.30
2022-10-17T02:03:21.867Z,16.08
2022-10-17T02:05:48.749Z,16.07
2022-10-17T02:08:25.724Z,16.19
2022-10-17T02:11:01.824Z,16.19
2022-10-17T02:13:50.386Z,16.08
2022-10-17T02:16:38.193Z,16.09
2022-10-17T02:19:34.352Z,16.54
2022-10-17T02:22:24.450Z,16.45
2022-10-17T02:25:09.398Z,16.43
2022-10-17T02:27:52.661Z,16.52
2022-10-17T02:30:34.190Z,16.66
2022-10-17T02:33:12.115Z,15.94
2022-10-17T02:35:44.635Z,15.77
2022-10-17T02:38:12.967Z,15.94
2022-10-17T02:40:40.959Z,16.16
2022-10-17T02:43:07.847Z,15.98
2022-10-17T02:45:37.700Z,15.98
2022-10-17T02:48:26.705Z,16.00
2022-10-17T02:51:07.655Z,16.05
2022-10-17T02:53:46.419Z,16.47
2022-10-17T02:56:19.275Z,16.47
2022-10-17T02:58:51.790Z,15.96
2022-10-17T03:01:19.798Z,15.44
2022-10-17T03:03:46.675Z,15.85
2022-10-17T03:06:13.478Z,15.73
2022-10-17T03:08:40.106Z,15.53
2022-10-17T03:11:07.008Z,15.55
2022-10-17T03:13:36.349Z,15.86
2022-10-17T03:16:07.763Z,15.84
2022-10-17T03:18:34.892Z,15.74
2022-10-17T03:21:03.275Z,15.51
2022-10-17T03:23:30.020Z,15.23
2022-10-17T03:25:57.019Z,15.66
2022-10-17T03:28:24.258Z,15.67
2022-10-17T03:30:51.068Z,15.53
2022-10-17T03:33:17.708Z,15.62
2022-10-17T03:35:44.434Z,15.38
2022-10-17T03:38:11.118Z,14.95
2022-10-17T03:40:38.025Z,14.85
2022-10-17T03:43:04.799Z,15.12
2022-10-17T03:45:32.141Z,15.71
2022-10-17T03:47:59.723Z,15.39
2022-10-17T03:50:26.511Z,15.18
2022-10-17T03:52:53.129Z,15.18
2022-10-17T03:55:19.862Z,15.06
2022-10-17T03:57:47.224Z,15.00
2022-10-17T04:00:16.133Z,15.08
2022-10-17T04:02:48.834Z,15.27
2022-10-17T04:05:18.574Z,15.33
2022-10-17T04:07:45.977Z,15.27
2022-10-17T04:10:14.114Z,15.28
2022-10-17T04:12:42.253Z,15.13
2022-10-17T04:15:09.868Z,15.07
2022-10-17T04:17:38.328Z,15.22
2022-10-17T04:20:06.832Z,15.27
2022-10-17T04:22:34.220Z,15.19
2022-10-17T04:25:01.059Z,15.18
2022-10-17T04:27:33.624Z,15.34
2022-10-17T04:30:01.399Z,15.20
2022-10-17T04:32:31.023Z,15.24
2022-10-17T04:35:06.309Z,15.13
2022-10-17T04:37:33.384Z,15.20
2022-10-17T04:40:03.300Z,15.32
2022-10-17T04:42:32.496Z,15.23
2022-10-17T04:44:59.424Z,15.26
2022-10-17T04:47:26.957Z,15.29
2022-10-17T04:49:55.133Z,15.39
2022-10-17T04:52:22.550Z,15.78
2022-10-17T04:54:50.095Z,15.84
2022-10-17T04:57:18.676Z,15.91
2022-10-17T04:59:54.242Z,16.15
2022-10-17T05:02:35.428Z,16.04
2022-10-17T05:05:03.326Z,16.10
2022-10-17T05:07:30.109Z,16.04
2022-10-17T05:10:02.803Z,16.27
2022-10-17T05:12:31.225Z,16.22
2022-10-17T05:14:58.341Z,16.39
2022-10-17T05:17:26.377Z,16.12
2022-10-17T05:19:52.976Z,16.21
2022-10-17T05:22:19.641Z,16.03
2022-10-17T05:24:46.851Z,16.05
2022-10-17T05:27:13.690Z,16.04
2022-10-17T05:29:40.426Z,16.05
2022-10-17T05:32:17.557Z,16.06
2022-10-17T05:34:44.539Z,16.05
2022-10-17T05:37:11.477Z,15.98
2022-10-17T05:39:39.161Z,16.36
2022-10-17T05:42:07.241Z,16.33
2022-10-17T05:44:35.073Z,16.53
2022-10-17T05:47:02.455Z,16.57
2022-10-17T05:49:40.055Z,16.63
2022-10-17T05:52:12.236Z,16.53
2022-10-17T05:54:53.716Z,16.60
2022-10-17T05:57:20.690Z,16.47
2022-10-17T05:59:47.712Z,16.49
2022-10-17T06:02:19.114Z,16.57
2022-10-17T06:04:46.616Z,16.64
2022-10-17T06:07:14.595Z,16.64
2022-10-17T06:09:43.420Z,16.77
2022-10-17T06:12:10.727Z,17.08
2022-10-17T06:14:37.422Z,17.01
2022-10-17T06:17:12.109Z,17.01
2022-10-17T06:19:44.793Z,16.99
2022-10-17T06:22:14.072Z,16.89
2022-10-17T06:24:40.951Z,16.97
2022-10-17T06:27:11.016Z,16.95
2022-10-17T06:29:39.768Z,16.95
2022-10-17T06:32:09.856Z,16.93
2022-10-17T06:34:40.547Z,16.99
2022-10-17T06:37:07.172Z,17.07
2022-10-17T06:39:36.046Z,17.09
2022-10-17T06:42:10.608Z,17.16
2022-10-17T06:44:49.924Z,17.18
2022-10-17T06:47:23.237Z,17.15
2022-10-17T06:49:56.816Z,17.17
2022-10-17T06:52:31.822Z,17.31
2022-10-17T06:55:21.341Z,17.36
2022-10-17T06:58:17.102Z,17.40
2022-10-17T07:01:11.148Z,17.89
2022-10-17T07:03:38.552Z,18.15
2022-10-17T07:06:05.489Z,18.40
2022-10-17T07:08:32.395Z,18.41
2022-10-17T07:11:13.614Z,18.87
2022-10-17T07:13:40.668Z,18.86
2022-10-17T07:16:08.219Z,19.04
2022-10-17T07:18:36.291Z,19.20
2022-10-17T07:21:04.040Z,19.34
2022-10-17T07:23:31.166Z,19.48
2022-10-17T07:26:03.080Z,19.47
2022-10-17T07:28:29.942Z,19.61
2022-10-17T07:31:12.662Z,19.90
2022-10-17T07:33:39.459Z,19.96
2022-10-17T07:36:06.396Z,20.04
2022-10-17T07:38:33.867Z,20.45
2022-10-17T07:41:03.040Z,21.01
2022-10-17T07:43:30.811Z,21.16
2022-10-17T07:46:01.560Z,21.21
2022-10-17T07:48:30.488Z,21.16
2022-10-17T07:50:57.334Z,21.14
2022-10-17T07:53:24.036Z,20.98
2022-10-17T07:55:51.425Z,20.47
2022-10-17T07:58:18.255Z,20.62
2022-10-17T08:00:48.439Z,20.53
2022-10-17T08:03:15.351Z,20.22
2022-10-17T08:05:42.050Z,20.51
2022-10-17T08:08:08.770Z,20.32
2022-10-17T08:10:35.482Z,20.73
2022-10-17T08:13:02.294Z,20.95
2022-10-17T08:15:31.784Z,20.67
2022-10-17T08:17:59.635Z,20.86
2022-10-17T08:20:26.621Z,20.79
2022-10-17T08:22:54.367Z,21.02
2022-10-17T08:25:21.752Z,21.19
2022-10-17T08:27:48.743Z,20.91
2022-10-17T08:30:15.792Z,21.16
2022-10-17T08:32:43.062Z,21.73
2022-10-17T08:35:10.246Z,21.65
2022-10-17T08:37:37.005Z,21.96
2022-10-17T08:40:04.237Z,21.88
2022-10-17T08:42:49.382Z,22.33
2022-10-17T08:45:48.823Z,22.39
2022-10-17T08:48:20.438Z,22.28
2022-10-17T08:51:02.967Z,22.34
2022-10-17T08:53:36.679Z,22.33
2022-10-17T08:56:19.467Z,22.39
2022-10-17T08:58:51.757Z,22.26
2022-10-17T09:01:42.275Z,22.59
2022-10-17T09:04:46.671Z,22.52
2022-10-17T09:07:13.236Z,22.17
2022-10-17T09:10:03.178Z,22.46
2022-10-17T09:12:49.997Z,22.58
2022-10-17T09:15:46.091Z,22.93
2022-10-17T09:18:23.924Z,23.03
2022-10-17T09:20:58.033Z,23.05
2022-10-17T09:23:37.973Z,23.06
2022-10-17T09:26:11.266Z,22.83
2022-10-17T09:28:40.941Z,22.93
2022-10-17T09:31:23.041Z,23.36
2022-10-17T09:33:54.638Z,23.42
2022-10-17T09:36:25.881Z,23.42
2022-10-17T09:38:55.542Z,23.59
2022-10-17T09:41:51.532Z,23.70
2022-10-17T09:44:58.156Z,23.85
2022-10-17T09:48:01.016Z,23.65
2022-10-17T09:50:31.364Z,23.62
2022-10-17T09:53:08.579Z,23.78
2022-10-17T09:55:42.395Z,23.83
2022-10-17T09:58:10.391Z,24.13
2022-10-17T10:00:43.007Z,23.73
2022-10-17T10:03:09.599Z,23.70
2022-10-17T10:05:36.404Z,24.39
2022-10-17T10:08:12.623Z,24.29
2022-10-17T10:10:43.201Z,24.77
2022-10-17T10:13:12.928Z,24.21
2022-10-17T10:15:42.152Z,24.04
2022-10-17T10:18:27.140Z,24.28
2022-10-17T10:21:24.637Z,24.32
2022-10-17T10:24:17.575Z,24.20
2022-10-17T10:26:46.857Z,24.36
2022-10-17T10:29:26.748Z,24.63
2022-10-17T10:31:53.921Z,24.32
2022-10-17T10:34:31.347Z,24.65
2022-10-17T10:37:05.960Z,24.87
2022-10-17T10:39:38.953Z,24.52
2022-10-17T10:42:18.614Z,25.09
2022-10-17T10:44:46.712Z,24.90
2022-10-17T10:47:26.337Z,25.92
2022-10-17T10:50:17.536Z,26.84
2022-10-17T10:53:10.824Z,26.01
2022-10-17T10:55:58.690Z,25.37
2022-10-17T10:58:52.713Z,25.98
2022-10-17T11:01:29.606Z,25.29
2022-10-17T11:04:01.155Z,25.52
2022-10-17T11:06:30.532Z,25.44
2022-10-17T11:09:33.680Z,25.96
2022-10-17T11:12:45.730Z,26.24
2022-10-17T11:15:54.475Z,26.46
2022-10-17T11:18:35.671Z,26.22
2022-10-17T11:24:34.370Z,27.03
2022-10-17T11:27:04.349Z,26.58
2022-10-17T11:29:33.368Z,26.07
2022-10-17T11:32:15.529Z,26.19
2022-10-17T11:34:51.437Z,25.89
2022-10-17T11:37:26.039Z,26.00
2022-10-17T11:40:21.901Z,26.42
2022-10-17T11:42:57.162Z,25.66
2022-10-17T11:45:27.219Z,26.01
2022-10-17T11:48:10.805Z,26.01
2022-10-17T11:53:40.680Z,26.14
2022-10-17T11:56:11.480Z,26.70
2022-10-17T11:58:54.668Z,26.86
2022-10-17T12:01:44.203Z,26.54
2022-10-17T12:04:16.604Z,26.54
2022-10-17T12:07:04.466Z,26.43
2022-10-17T12:09:55.282Z,27.03
2022-10-17T12:12:27.440Z,26.93
2022-10-17T12:15:14.888Z,26.11
2022-10-17T12:17:45.918Z,26.81
2022-10-17T12:20:23.576Z,27.04
2022-10-17T12:23:10.345Z,26.35
2022-10-17T12:25:49.485Z,26.52
2022-10-17T12:28:36.181Z,26.00
2022-10-17T12:31:29.745Z,26.19
2022-10-17T12:34:02.982Z,26.40
2022-10-17T12:36:29.548Z,26.35
2022-10-17T12:39:02.378Z,26.40
2022-10-17T12:41:38.042Z,26.43
2022-10-17T12:44:14.099Z,26.37
2022-10-17T12:46:44.351Z,25.83
2022-10-17T12:49:35.885Z,25.86
2022-10-17T12:52:17.743Z,25.90
2022-10-17T12:55:12.565Z,26.12
2022-10-17T12:58:05.075Z,26.85
2022-10-17T13:01:19.099Z,27.00
2022-10-17T13:03:46.278Z,27.52
2022-10-17T13:06:27.912Z,27.88
2022-10-17T13:09:03.444Z,27.97
2022-10-17T13:11:34.024Z,27.77
2022-10-17T13:14:03.468Z,27.38
2022-10-17T13:16:36.051Z,27.36
2022-10-17T13:19:12.264Z,27.20
2022-10-17T13:21:38.971Z,27.34
2022-10-17T13:24:31.100Z,27.30
2022-10-17T13:26:58.696Z,27.33
2022-10-17T13:29:28.744Z,26.84
2022-10-17T13:32:03.919Z,27.46
2022-10-17T13:34:32.263Z,27.31
2022-10-17T13:37:02.892Z,27.29
2022-10-17T13:39:52.414Z,27.48
2022-10-17T13:42:27.465Z,27.50
2022-10-17T13:44:55.228Z,26.74
2022-10-17T13:47:28.060Z,27.06
2022-10-17T13:49:55.838Z,26.81
2022-10-17T13:52:26.480Z,26.94
2022-10-17T13:54:54.937Z,26.68
2022-10-17T13:57:23.823Z,26.31
2022-10-17T13:59:57.704Z,26.48
2022-10-17T14:02:27.703Z,26.25
2022-10-17T14:05:22.924Z,26.40
2022-10-17T14:08:14.516Z,26.28
2022-10-17T14:10:42.500Z,25.92
2022-10-17T14:13:22.748Z,26.47
2022-10-17T14:15:51.377Z,26.12
2022-10-17T14:18:22.972Z,26.29
2022-10-17T14:21:34.017Z,25.81
2022-10-17T14:23:43.723Z,25.95
2022-10-17T14:26:12.132Z,25.86
2022-10-17T14:28:40.745Z,25.61
2022-10-17T14:31:15.354Z,25.76
2022-10-17T14:33:50.785Z,25.87
2022-10-17T14:36:19.046Z,25.99
2022-10-17T14:38:48.368Z,25.72
2022-10-17T14:41:43.786Z,25.74
2022-10-17T14:44:23.010Z,25.84
2022-10-17T14:46:54.690Z,25.76
2022-10-17T14:49:28.078Z,25.79
2022-10-17T14:52:25.473Z,25.79
2022-10-17T14:54:52.127Z,25.57
2022-10-17T14:57:34.772Z,25.73
2022-10-17T15:00:01.706Z,25.30
2022-10-17T15:02:30.254Z,25.51
2022-10-17T15:04:57.363Z,25.52
2022-10-17T15:07:24.279Z,25.42
2022-10-17T15:09:52.438Z,25.59
2022-10-17T15:12:22.997Z,25.33
2022-10-17T15:14:50.641Z,25.12
2022-10-17T15:17:29.041Z,25.13
2022-10-17T15:19:56.703Z,25.04
2022-10-17T15:22:23.856Z,25.00
2022-10-17T15:24:50.648Z,24.86
2022-10-17T15:27:23.147Z,25.01
2022-10-17T15:29:50.810Z,24.90
2022-10-17T15:32:17.557Z,24.90
2022-10-17T15:34:44.850Z,24.99
2022-10-17T15:37:23.154Z,25.11
2022-10-17T15:39:54.084Z,24.97
2022-10-17T15:42:23.468Z,24.92
2022-10-17T15:44:50.359Z,24.84
2022-10-17T15:47:28.991Z,24.96
2022-10-17T15:49:55.995Z,24.82
2022-10-17T15:52:23.650Z,24.64
2022-10-17T15:54:50.386Z,24.43
2022-10-17T15:57:21.068Z,24.36
2022-10-17T15:59:49.243Z,24.09
2022-10-17T16:02:18.252Z,23.98
2022-10-17T16:04:45.201Z,23.72
2022-10-17T16:07:11.835Z,23.77
2022-10-17T16:09:38.655Z,23.67
2022-10-17T16:12:07.013Z,23.55
2022-10-17T16:14:33.638Z,23.36
2022-10-17T16:17:00.656Z,23.34
2022-10-17T16:19:29.913Z,23.32
2022-10-17T16:21:59.645Z,23.21
2022-10-17T16:24:28.863Z,23.21
2022-10-17T16:26:55.546Z,23.06
2022-10-17T16:29:22.145Z,23.13
2022-10-17T16:31:48.754Z,22.99
2022-10-17T16:34:16.016Z,22.99
2022-10-17T16:36:42.771Z,23.28
2022-10-17T16:39:09.662Z,22.90
2022-10-17T16:41:39.323Z,22.85
2022-10-17T16:44:13.004Z,22.83
2022-10-17T16:46:39.620Z,22.72
2022-10-17T16:49:07.382Z,22.69
2022-10-17T16:51:35.944Z,23.01
2022-10-17T16:54:04.528Z,22.76
2022-10-17T16:56:32.769Z,22.81
2022-10-17T16:59:01.076Z,22.88
2022-10-17T17:01:31.566Z,22.80
2022-10-17T17:03:58.661Z,22.69
2022-10-17T17:06:28.761Z,22.60
2022-10-17T17:08:56.398Z,22.58
2022-10-17T17:11:25.311Z,22.59
2022-10-17T17:13:52.234Z,22.59
2022-10-17T17:16:23.851Z,22.53
2022-10-17T17:18:55.343Z,22.54
2022-10-17T17:21:22.146Z,22.36
2022-10-17T17:23:48.782Z,22.32
2022-10-17T17:26:22.200Z,22.45
2022-10-17T17:28:50.045Z,22.44
2022-10-17T17:31:20.508Z,22.51
2022-10-17T17:33:47.335Z,22.48
2022-10-17T17:36:19.193Z,22.58
2022-10-17T17:38:47.304Z,22.64
2022-10-17T17:41:15.364Z,22.68
2022-10-17T17:43:42.875Z,22.67
2022-10-17T17:46:09.887Z,22.66
2022-10-17T17:48:40.943Z,22.87
2022-10-17T17:51:09.173Z,22.79
2022-10-17T17:53:37.112Z,22.87
2022-10-17T17:56:11.630Z,23.08
2022-10-17T17:58:38.330Z,23.10
2022-10-17T18:01:15.130Z,22.95
2022-10-17T18:03:41.948Z,22.72
2022-10-17T18:06:08.797Z,22.74
2022-10-17T18:08:35.852Z,22.67
2022-10-17T18:11:03.184Z,22.67
2022-10-17T18:13:29.859Z,22.67
2022-10-17T18:15:58.248Z,22.63
2022-10-17T18:18:26.569Z,22.80
2022-10-17T18:20:54.371Z,22.50
2022-10-17T18:23:21.693Z,22.54
2022-10-17T18:25:55.959Z,22.62
2022-10-17T18:28:23.645Z,22.72
2022-10-17T18:30:50.572Z,22.74
2022-10-17T18:33:17.249Z,22.79
2022-10-17T18:35:43.951Z,22.80
2022-10-17T18:38:10.600Z,22.81
2022-10-17T18:40:37.418Z,22.86
2022-10-17T18:43:04.143Z,22.87
2022-10-17T18:45:30.792Z,22.93
2022-10-17T18:47:57.475Z,22.72
2022-10-17T18:50:25.053Z,22.67
2022-10-17T18:52:51.770Z,22.78
2022-10-17T18:55:20.532Z,22.90
2022-10-17T18:57:49.294Z,22.77
2022-10-17T19:00:16.994Z,22.68
2022-10-17T19:02:43.662Z,22.81
2022-10-17T19:05:10.673Z,22.96
2022-10-17T19:07:37.271Z,22.98
2022-10-17T19:10:04.069Z,23.03
2022-10-17T19:12:30.800Z,23.01
2022-10-17T19:14:57.427Z,22.97
2022-10-17T19:17:24.062Z,22.95
2022-10-17T19:19:52.346Z,22.80
2022-10-17T19:22:19.172Z,22.94
2022-10-17T19:24:45.744Z,22.96
2022-10-17T19:27:12.394Z,22.99
2022-10-17T19:29:43.436Z,23.08
2022-10-17T19:32:15.696Z,23.08
2022-10-17T19:34:44.831Z,22.95
2022-10-17T19:37:11.412Z,23.03
2022-10-17T19:39:38.215Z,23.18
2022-10-17T19:42:06.871Z,23.27
2022-10-17T19:44:34.664Z,23.23
2022-10-17T19:47:01.236Z,23.18
2022-10-17T19:49:28.029Z,23.01
2022-10-17T19:51:54.574Z,23.10
2022-10-17T19:54:21.215Z,22.94
2022-10-17T19:56:48.566Z,22.98
2022-10-17T19:59:16.458Z,22.80
2022-10-17T20:01:44.298Z,22.90
2022-10-17T20:04:11.725Z,22.70
2022-10-17T20:06:38.815Z,22.98
2022-10-17T20:09:06.867Z,22.72
2022-10-17T20:11:35.247Z,22.37
2022-10-17T20:14:02.011Z,22.79
2022-10-17T20:16:31.472Z,22.39
2022-10-17T20:19:03.986Z,22.60
2022-10-17T20:21:32.970Z,22.56
2022-10-17T20:24:00.174Z,22.52
2022-10-17T20:26:42.851Z,22.67
2022-10-17T20:29:15.961Z,22.61
2022-10-17T20:31:44.564Z,22.46
2022-10-17T20:34:16.090Z,22.39
2022-10-17T20:36:43.044Z,22.30
2022-10-17T20:39:12.139Z,22.29
2022-10-17T20:41:38.797Z,22.10
2022-10-17T20:44:06.951Z,22.03
2022-10-17T20:46:37.834Z,22.13
2022-10-17T20:49:08.027Z,22.29
2022-10-17T20:51:35.545Z,22.27
2022-10-17T20:54:03.265Z,22.20
2022-10-17T20:56:31.705Z,22.26
2022-10-17T20:59:01.449Z,22.18
2022-10-17T21:01:29.640Z,22.10
2022-10-17T21:03:59.635Z,21.96
2022-10-17T21:06:27.870Z,22.17
2022-10-17T21:08:55.676Z,22.10
2022-10-17T21:11:24.660Z,22.14
2022-10-17T21:14:05.553Z,22.37
2022-10-17T21:16:37.245Z,22.08
2022-10-17T21:19:05.488Z,21.99
2022-10-17T21:21:34.698Z,22.02
2022-10-17T21:24:04.949Z,22.09
2022-10-17T21:26:36.400Z,22.05
2022-10-17T21:29:06.005Z,21.92
2022-10-17T21:31:37.922Z,21.96
2022-10-17T21:34:10.049Z,21.68
2022-10-17T21:36:36.860Z,21.92
2022-10-17T21:39:04.269Z,21.58
2022-10-17T21:41:31.495Z,21.71
2022-10-17T21:44:04.327Z,21.80
2022-10-17T21:46:31.833Z,21.66
2022-10-17T21:48:59.564Z,21.74
2022-10-17T21:51:27.348Z,21.36
2022-10-17T21:53:56.096Z,21.39
2022-10-17T21:56:25.192Z,21.35
2022-10-17T21:58:51.828Z,21.11
2022-10-17T22:01:22.704Z,21.28
2022-10-17T22:03:51.928Z,21.39
2022-10-17T22:09:17.295Z,21.27
2022-10-17T22:11:49.010Z,21.01
2022-10-17T22:14:18.555Z,21.10
2022-10-17T22:16:46.611Z,21.51
2022-10-17T22:19:16.210Z,21.53
2022-10-17T22:21:42.876Z,21.38
2022-10-17T22:24:12.020Z,21.55
2022-10-17T22:26:39.211Z,21.40
2022-10-17T22:29:08.129Z,21.33
2022-10-17T22:31:35.665Z,21.24
2022-10-17T22:34:03.567Z,21.48
2022-10-17T22:36:32.545Z,21.58
2022-10-17T22:38:59.181Z,21.71
2022-10-17T22:41:25.821Z,21.49
2022-10-17T22:43:52.463Z,21.31
2022-10-17T22:46:19.114Z,21.30
2022-10-17T22:48:45.954Z,21.30
2022-10-17T22:51:13.378Z,21.38
2022-10-17T22:53:40.106Z,21.29
2022-10-17T22:56:13.721Z,21.51
2022-10-17T22:58:41.019Z,21.39
2022-10-17T23:01:10.142Z,21.41
2022-10-17T23:03:36.909Z,21.38
2022-10-17T23:06:03.839Z,21.60
2022-10-17T23:08:31.082Z,21.52
2022-10-17T23:10:57.921Z,21.42
2022-10-17T23:13:24.643Z,21.47
2022-10-17T23:15:52.959Z,21.50
2022-10-17T23:18:20.427Z,21.35
2022-10-17T23:20:47.341Z,20.93
2022-10-17T23:23:14.492Z,21.31
2022-10-17T23:25:41.543Z,21.00
2022-10-17T23:28:08.788Z,20.94
2022-10-17T23:30:36.203Z,20.77
2022-10-17T23:33:03.131Z,21.02
2022-10-17T23:35:29.796Z,21.04
2022-10-17T23:37:56.575Z,21.33
2022-10-17T23:40:23.266Z,21.30
2022-10-17T23:42:49.976Z,21.26
2022-10-17T23:45:16.750Z,21.27
2022-10-17T23:47:43.373Z,21.35
2022-10-17T23:50:10.053Z,21.31
2022-10-17T23:52:36.729Z,21.27
2022-10-17T23:55:04.355Z,21.36
2022-10-17T23:57:31.143Z,21.30
2022-10-17T23:59:57.823Z,21.42
